createdAt,value
2023-05-22T00:01:26.767Z,22.85
2023-05-22T00:03:50.881Z,19.40
2023-05-22T00:06:18.480Z,19.15
2023-05-22T00:08:40.857Z,19.70
2023-05-22T00:11:06.205Z,20.67
2023-05-22T00:13:28.486Z,19.45
2023-05-22T00:15:50.970Z,19.37
2023-05-22T00:18:16.720Z,18.52
2023-05-22T00:20:41.114Z,18.33
2023-05-22T00:23:03.841Z,17.55
2023-05-22T00:25:26.520Z,18.10
2023-05-22T00:27:49.183Z,18.65
2023-05-22T00:30:12.301Z,17.80
2023-05-22T00:32:35.053Z,16.77
2023-05-22T00:34:57.698Z,18.55
2023-05-22T00:37:20.336Z,18.73
2023-05-22T00:39:43.043Z,18.60
2023-05-22T00:42:06.065Z,17.88
2023-05-22T00:44:28.743Z,18.33
2023-05-22T00:46:51.741Z,18.87
2023-05-22T00:49:14.091Z,17.50
2023-05-22T00:51:36.586Z,19.10
2023-05-22T00:53:59.750Z,19.10
2023-05-22T00:56:22.351Z,20.30
2023-05-22T00:58:44.898Z,22.90
2023-05-22T01:01:09.678Z,21.47
2023-05-22T01:03:42.372Z,20.67
2023-05-22T01:06:05.052Z,21.67
2023-05-22T01:08:27.687Z,23.87
2023-05-22T01:10:53.643Z,20.23
2023-05-22T01:16:12.648Z,19.00
2023-05-22T01:18:42.539Z,21.67
2023-05-22T01:21:10.452Z,23.40
2023-05-22T01:23:36.546Z,20.87
2023-05-22T01:26:23.038Z,20.07
2023-05-22T01:32:02.432Z,21.10
2023-05-22T01:34:25.789Z,19.67
2023-05-22T01:36:49.525Z,19.23
2023-05-22T01:39:15.612Z,20.17
2023-05-22T01:41:38.354Z,20.70
2023-05-22T01:44:04.904Z,20.57
2023-05-22T01:46:30.562Z,21.00
2023-05-22T01:48:53.113Z,22.80
2023-05-22T01:51:21.084Z,20.40
2023-05-22T01:53:45.024Z,21.93
2023-05-22T01:56:08.328Z,23.13
2023-05-22T01:58:43.847Z,23.33
2023-05-22T02:01:09.217Z,20.47
2023-05-22T02:03:33.067Z,22.20
2023-05-22T02:05:56.058Z,21.07
2023-05-22T02:08:18.971Z,23.57
2023-05-22T02:10:41.897Z,23.57
2023-05-22T02:13:06.277Z,23.20
2023-05-22T02:15:29.173Z,24.83
2023-05-22T02:17:53.378Z,25.80
2023-05-22T02:20:16.521Z,25.70
2023-05-22T02:22:39.306Z,25.20
2023-05-22T02:25:01.869Z,24.03
2023-05-22T02:27:24.246Z,22.53
2023-05-22T02:29:46.620Z,23.73
2023-05-22T02:32:09.300Z,26.37
2023-05-22T02:34:32.108Z,23.37
2023-05-22T02:36:56.292Z,26.57
2023-05-22T02:39:19.663Z,24.77
2023-05-22T02:41:42.300Z,25.67
2023-05-22T02:44:04.746Z,23.73
2023-05-22T02:46:28.089Z,23.50
2023-05-22T02:48:50.720Z,25.97
2023-05-22T02:51:21.559Z,25.60
2023-05-22T02:53:43.872Z,24.93
2023-05-22T02:56:07.940Z,26.73
2023-05-22T02:58:30.389Z,23.87
2023-05-22T03:00:55.563Z,25.97
2023-05-22T03:03:18.947Z,27.47
2023-05-22T03:05:41.371Z,26.53
2023-05-22T03:08:04.820Z,25.57
2023-05-22T03:10:27.146Z,23.33
2023-05-22T03:12:52.596Z,24.27
2023-05-22T03:15:15.607Z,25.27
2023-05-22T03:17:39.211Z,25.70
2023-05-22T03:20:01.510Z,25.47
2023-05-22T03:22:23.845Z,25.07
2023-05-22T03:24:46.405Z,27.60
2023-05-22T03:27:08.819Z,26.73
2023-05-22T03:29:37.432Z,27.97
2023-05-22T03:31:59.974Z,28.63
2023-05-22T03:34:22.893Z,26.63
2023-05-22T03:36:46.101Z,29.00
2023-05-22T03:39:11.104Z,25.03
2023-05-22T03:41:40.463Z,30.20
2023-05-22T03:44:03.645Z,25.30
2023-05-22T03:49:31.946Z,24.57
2023-05-22T03:51:54.350Z,23.77
2023-05-22T03:54:19.817Z,26.10
2023-05-22T03:56:42.485Z,32.63
2023-05-22T03:59:05.014Z,30.33
2023-05-22T04:01:27.365Z,29.83
2023-05-22T04:03:49.843Z,28.03
2023-05-22T04:06:13.757Z,28.13
2023-05-22T04:08:39.096Z,28.17
2023-05-22T04:11:01.636Z,31.20
2023-05-22T04:13:24.202Z,28.60
2023-05-22T04:15:46.994Z,26.10
2023-05-22T04:18:09.492Z,31.83
2023-05-22T04:20:32.278Z,30.40
2023-05-22T04:22:54.674Z,27.90
2023-05-22T04:25:17.053Z,31.67
2023-05-22T04:27:40.216Z,28.83
2023-05-22T04:30:03.737Z,27.90
2023-05-22T04:32:32.109Z,28.73
2023-05-22T04:38:03.787Z,28.67
2023-05-22T04:40:29.258Z,30.17
2023-05-22T04:42:54.360Z,25.00
2023-05-22T04:45:19.465Z,27.52
2023-05-22T04:47:44.813Z,28.57
2023-05-22T04:50:07.793Z,26.23
2023-05-22T04:52:31.512Z,25.58
2023-05-22T04:54:55.495Z,23.88
2023-05-22T04:57:18.921Z,25.75
2023-05-22T05:06:34.929Z,21.33
2023-05-22T05:08:58.922Z,22.48
2023-05-22T05:11:21.888Z,20.95
2023-05-22T05:13:46.791Z,19.48
2023-05-22T05:16:09.608Z,20.55
2023-05-22T05:19:35.474Z,20.60
2023-05-22T05:22:25.084Z,22.80
2023-05-22T05:24:47.775Z,20.42
2023-05-22T05:27:10.310Z,21.08
2023-05-22T05:29:32.930Z,19.00
2023-05-22T05:32:00.636Z,17.75
2023-05-22T05:34:28.293Z,17.98
2023-05-22T05:36:59.929Z,19.73
2023-05-22T05:39:22.589Z,18.10
2023-05-22T05:41:45.898Z,19.30
2023-05-22T05:44:08.170Z,20.33
2023-05-22T05:46:30.659Z,19.33
2023-05-22T05:48:53.432Z,20.00
2023-05-22T05:51:17.112Z,19.05
2023-05-22T05:53:40.986Z,19.80
2023-05-22T05:56:04.160Z,19.98
2023-05-22T05:58:27.395Z,20.08
2023-05-22T06:01:08.386Z,18.45
2023-05-22T06:03:32.765Z,19.63
2023-05-22T06:06:03.302Z,19.58
2023-05-22T06:08:46.198Z,19.98
2023-05-22T06:11:08.542Z,19.05
2023-05-22T06:13:34.265Z,20.13
2023-05-22T06:15:58.194Z,20.15
2023-05-22T06:18:23.905Z,19.23
2023-05-22T06:20:48.435Z,19.08
2023-05-22T06:23:11.104Z,19.85
2023-05-22T06:25:33.763Z,19.92
2023-05-22T06:27:56.614Z,23.17
2023-05-22T06:30:31.966Z,21.50
2023-05-22T06:33:04.254Z,21.20
2023-05-22T06:35:26.651Z,21.58
2023-05-22T06:37:49.404Z,20.25
2023-05-22T06:40:12.331Z,21.15
2023-05-22T06:42:42.177Z,20.23
2023-05-22T06:45:24.973Z,19.98
2023-05-22T06:48:19.870Z,23.65
2023-05-22T06:50:58.278Z,19.08
2023-05-22T06:53:23.795Z,18.98
2023-05-22T06:55:46.154Z,18.35
2023-05-22T06:58:17.345Z,20.45
2023-05-22T07:00:39.852Z,19.25
2023-05-22T07:03:16.294Z,19.70
2023-05-22T07:06:06.471Z,20.60
2023-05-22T07:08:30.638Z,21.20
2023-05-22T07:10:53.272Z,19.83
2023-05-22T07:13:15.680Z,19.92
2023-05-22T07:15:38.367Z,19.48
2023-05-22T07:18:02.076Z,21.40
2023-05-22T07:20:26.213Z,20.30
2023-05-22T07:23:08.863Z,19.30
2023-05-22T07:25:32.646Z,19.58
2023-05-22T07:27:55.745Z,21.50
2023-05-22T07:30:19.213Z,20.00
2023-05-22T07:32:42.754Z,21.55
2023-05-22T07:35:05.686Z,22.33
2023-05-22T07:37:29.965Z,23.77
2023-05-22T07:39:52.260Z,20.25
2023-05-22T07:42:15.269Z,20.70
2023-05-22T07:44:44.080Z,20.60
2023-05-22T07:47:06.627Z,18.15
2023-05-22T07:49:29.969Z,19.58
2023-05-22T07:51:52.778Z,19.67
2023-05-22T07:54:18.170Z,18.58
2023-05-22T07:56:44.175Z,18.80
2023-05-22T07:59:09.172Z,19.92
2023-05-22T08:01:31.411Z,20.08
2023-05-22T08:03:53.823Z,19.77
2023-05-22T08:06:17.801Z,18.80
2023-05-22T08:08:40.134Z,19.30
2023-05-22T08:11:04.772Z,19.02
2023-05-22T08:13:27.305Z,19.45
2023-05-22T08:15:49.574Z,19.70
2023-05-22T08:18:12.100Z,19.23
2023-05-22T08:20:34.444Z,17.77
2023-05-22T08:22:56.837Z,19.50
2023-05-22T08:25:19.129Z,19.40
2023-05-22T08:27:41.442Z,15.40
2023-05-22T08:30:04.681Z,17.75
2023-05-22T08:32:28.636Z,17.23
2023-05-22T08:34:51.601Z,19.63
2023-05-22T08:37:16.860Z,18.08
2023-05-22T08:39:39.071Z,17.88
2023-05-22T08:42:03.239Z,18.83
2023-05-22T08:44:25.484Z,17.55
2023-05-22T08:46:49.458Z,17.75
2023-05-22T08:49:11.981Z,17.45
2023-05-22T08:51:35.755Z,18.23
2023-05-22T08:53:58.564Z,17.90
2023-05-22T08:56:21.205Z,19.02
2023-05-22T08:58:44.333Z,18.33
2023-05-22T09:01:07.466Z,18.83
2023-05-22T09:03:34.376Z,19.30
2023-05-22T09:05:56.926Z,17.88
2023-05-22T09:08:20.880Z,21.00
2023-05-22T09:10:43.516Z,18.67
2023-05-22T09:13:08.873Z,17.60
2023-05-22T09:15:32.625Z,18.63
2023-05-22T09:17:54.988Z,18.52
2023-05-22T09:20:17.328Z,17.27
2023-05-22T09:22:39.914Z,17.48
2023-05-22T09:25:02.299Z,18.52
2023-05-22T09:27:25.045Z,17.13
2023-05-22T09:29:52.012Z,16.92
2023-05-22T09:32:15.346Z,16.52
2023-05-22T09:34:37.701Z,15.77
2023-05-22T09:37:06.174Z,17.30
2023-05-22T09:39:42.256Z,15.98
2023-05-22T09:42:05.099Z,16.42
2023-05-22T09:44:27.657Z,19.88
2023-05-22T09:46:51.925Z,16.27
2023-05-22T09:49:16.536Z,15.95
2023-05-22T09:51:41.357Z,16.98
2023-05-22T09:54:10.193Z,17.98
2023-05-22T09:56:39.956Z,16.85
2023-05-22T09:59:03.034Z,15.10
2023-05-22T10:01:26.114Z,13.93
2023-05-22T10:03:49.530Z,15.13
2023-05-22T10:06:15.075Z,14.82
2023-05-22T10:08:44.492Z,13.75
2023-05-22T10:11:06.881Z,15.02
2023-05-22T10:13:29.562Z,14.23
2023-05-22T10:15:52.131Z,14.40
2023-05-22T10:18:16.470Z,15.30
2023-05-22T10:20:38.922Z,16.80
2023-05-22T10:23:03.707Z,14.55
2023-05-22T10:25:26.996Z,14.20
2023-05-22T10:27:50.202Z,15.32
2023-05-22T10:30:18.761Z,14.82
2023-05-22T10:33:08.622Z,14.73
2023-05-22T10:35:52.944Z,14.18
2023-05-22T10:38:34.227Z,14.93
2023-05-22T10:41:04.399Z,12.35
2023-05-22T10:43:31.853Z,14.18
2023-05-22T10:46:03.077Z,15.30
2023-05-22T10:48:26.096Z,13.90
2023-05-22T10:51:15.383Z,13.98
2023-05-22T10:53:37.796Z,11.00
2023-05-22T10:56:06.391Z,12.35
2023-05-22T10:58:38.815Z,13.55
2023-05-22T11:01:13.983Z,13.43
2023-05-22T11:03:53.120Z,12.23
2023-05-22T11:06:33.209Z,12.48
2023-05-22T11:08:58.815Z,9.95
2023-05-22T11:11:26.163Z,10.07
2023-05-22T11:13:53.278Z,10.98
2023-05-22T11:16:17.077Z,10.93
2023-05-22T11:18:39.538Z,10.95
2023-05-22T11:21:01.951Z,11.00
2023-05-22T11:23:26.063Z,10.15
2023-05-22T11:25:48.270Z,9.77
2023-05-22T11:28:11.687Z,10.88
2023-05-22T11:30:35.348Z,10.20
2023-05-22T11:32:58.812Z,11.10
2023-05-22T11:35:22.773Z,10.15
2023-05-22T11:37:45.431Z,10.30
2023-05-22T11:40:11.305Z,10.98
2023-05-22T11:42:33.614Z,10.93
2023-05-22T11:44:56.658Z,10.32
2023-05-22T11:47:25.073Z,10.35
2023-05-22T11:49:47.650Z,10.38
2023-05-22T11:52:10.801Z,9.70
2023-05-22T11:54:34.398Z,8.95
2023-05-22T11:56:58.180Z,9.05
2023-05-22T11:59:21.971Z,11.05
2023-05-22T12:01:46.850Z,10.15
2023-05-22T12:04:09.240Z,10.25
2023-05-22T12:06:33.497Z,10.85
2023-05-22T12:08:56.385Z,10.55
2023-05-22T12:11:18.977Z,10.98
2023-05-22T12:13:41.438Z,11.18
2023-05-22T12:16:18.472Z,11.30
2023-05-22T12:18:42.080Z,9.85
2023-05-22T12:21:06.714Z,12.10
2023-05-22T12:23:31.591Z,11.52
2023-05-22T12:26:01.475Z,10.68
2023-05-22T12:28:23.776Z,10.65
2023-05-22T12:30:46.043Z,11.65
2023-05-22T12:33:17.735Z,11.43
2023-05-22T12:35:42.311Z,10.20
2023-05-22T12:38:09.210Z,10.48
2023-05-22T12:40:31.605Z,11.30
2023-05-22T12:42:53.968Z,10.02
2023-05-22T12:45:17.854Z,12.05
2023-05-22T12:47:40.780Z,10.45
2023-05-22T12:50:03.256Z,10.32
2023-05-22T12:52:25.687Z,9.75
2023-05-22T12:54:47.972Z,9.70
2023-05-22T12:57:17.135Z,9.38
2023-05-22T12:59:40.996Z,9.10
2023-05-22T13:02:04.184Z,9.00
2023-05-22T13:04:26.490Z,9.07
2023-05-22T13:06:48.909Z,8.80
2023-05-22T13:09:11.632Z,8.80
2023-05-22T13:11:33.957Z,8.63
2023-05-22T13:13:56.295Z,8.68
2023-05-22T13:16:18.639Z,8.40
2023-05-22T13:18:40.917Z,8.90
2023-05-22T13:21:03.494Z,8.85
2023-05-22T13:23:25.736Z,8.40
2023-05-22T13:25:48.041Z,8.70
2023-05-22T13:28:10.364Z,9.18
2023-05-22T13:30:32.785Z,10.68
2023-05-22T13:32:55.528Z,8.30
2023-05-22T13:35:17.939Z,9.07
2023-05-22T13:37:40.203Z,8.07
2023-05-22T13:40:02.816Z,8.65
2023-05-22T13:42:25.058Z,9.02
2023-05-22T13:44:47.314Z,8.70
2023-05-22T13:47:09.672Z,9.43
2023-05-22T13:49:32.199Z,8.70
2023-05-22T13:51:54.589Z,9.77
2023-05-22T13:54:16.896Z,10.57
2023-05-22T13:56:39.135Z,10.27
2023-05-22T13:59:01.442Z,10.02
2023-05-22T14:01:24.293Z,9.63
2023-05-22T14:03:46.570Z,10.30
2023-05-22T14:06:08.850Z,9.68
2023-05-22T14:08:31.078Z,10.75
2023-05-22T14:10:53.425Z,10.40
2023-05-22T14:13:15.844Z,12.35
2023-05-22T14:15:38.184Z,11.68
2023-05-22T14:18:00.696Z,11.07
2023-05-22T14:20:22.997Z,10.52
2023-05-22T14:22:56.593Z,12.23
2023-05-22T14:25:20.298Z,10.70
2023-05-22T14:27:42.529Z,12.15
2023-05-22T14:30:05.113Z,11.98
2023-05-22T14:32:27.436Z,11.77
2023-05-22T14:34:49.755Z,11.57
2023-05-22T14:37:12.056Z,11.90
2023-05-22T14:39:35.408Z,11.82
2023-05-22T14:41:57.723Z,11.73
2023-05-22T14:44:22.396Z,12.00
2023-05-22T14:46:44.714Z,12.07
2023-05-22T14:49:07.120Z,12.27
2023-05-22T14:51:29.466Z,12.75
2023-05-22T14:53:51.792Z,12.85
2023-05-22T14:56:14.317Z,12.30
2023-05-22T14:58:36.618Z,13.65
2023-05-22T15:01:00.108Z,11.75
2023-05-22T15:03:23.599Z,16.63
2023-05-22T15:05:45.956Z,11.85
2023-05-22T15:08:08.390Z,12.32
2023-05-22T15:10:30.770Z,12.13
2023-05-22T15:12:53.302Z,11.90
2023-05-22T15:15:18.386Z,11.63
2023-05-22T15:17:42.604Z,11.02
2023-05-22T15:20:05.580Z,11.50
2023-05-22T15:22:27.855Z,10.88
2023-05-22T15:25:05.863Z,11.23
2023-05-22T15:27:28.292Z,10.52
2023-05-22T15:29:50.536Z,11.10
2023-05-22T15:32:13.048Z,9.48
2023-05-22T15:34:35.407Z,10.57
2023-05-22T15:36:57.830Z,10.02
2023-05-22T15:39:26.041Z,10.13
2023-05-22T15:42:02.469Z,10.52
2023-05-22T15:44:28.537Z,10.05
2023-05-22T15:46:50.792Z,10.50
2023-05-22T15:49:13.055Z,10.73
2023-05-22T15:51:35.610Z,9.85
2023-05-22T15:53:58.075Z,9.85
2023-05-22T15:56:21.421Z,10.75
2023-05-22T15:58:43.865Z,10.93
2023-05-22T16:01:07.792Z,10.68
2023-05-22T16:03:30.318Z,11.52
2023-05-22T16:05:52.700Z,11.23
2023-05-22T16:08:15.482Z,10.85
2023-05-22T16:10:41.454Z,10.70
2023-05-22T16:13:05.464Z,9.85
2023-05-22T16:15:27.823Z,9.80
2023-05-22T16:17:50.161Z,12.00
2023-05-22T16:20:12.455Z,10.93
2023-05-22T16:22:47.452Z,10.10
2023-05-22T16:25:11.189Z,12.10
2023-05-22T16:27:33.445Z,10.35
2023-05-22T16:29:55.890Z,11.88
2023-05-22T16:32:18.371Z,11.07
2023-05-22T16:34:40.814Z,12.60
2023-05-22T16:37:03.248Z,12.30
2023-05-22T16:39:26.304Z,12.00
2023-05-22T16:41:48.626Z,13.43
2023-05-22T16:44:10.841Z,13.68
2023-05-22T16:46:33.397Z,12.65
2023-05-22T16:48:56.282Z,12.52
2023-05-22T16:51:18.684Z,13.40
2023-05-22T16:53:44.315Z,13.57
2023-05-22T16:56:06.804Z,13.75
2023-05-22T16:58:29.202Z,13.48
2023-05-22T17:00:51.801Z,13.20
2023-05-22T17:03:14.507Z,14.85
2023-05-22T17:05:37.344Z,15.27
2023-05-22T17:07:59.855Z,14.15
2023-05-22T17:10:22.513Z,13.43
2023-05-22T17:12:45.164Z,12.65
2023-05-22T17:15:07.837Z,13.82
2023-05-22T17:17:30.178Z,13.65
2023-05-22T17:19:53.381Z,14.32
2023-05-22T17:22:16.416Z,14.77
2023-05-22T17:24:39.157Z,13.75
2023-05-22T17:27:03.355Z,13.60
2023-05-22T17:29:27.278Z,14.50
2023-05-22T17:31:50.565Z,15.35
2023-05-22T17:34:12.950Z,12.98
2023-05-22T17:36:35.923Z,13.50
2023-05-22T17:38:58.452Z,15.55
2023-05-22T17:41:21.176Z,14.77
2023-05-22T17:43:43.838Z,15.27
2023-05-22T17:46:07.034Z,15.40
2023-05-22T17:48:29.531Z,14.45
2023-05-22T17:50:52.238Z,14.05
2023-05-22T17:53:17.789Z,15.60
2023-05-22T17:55:40.049Z,14.02
2023-05-22T17:58:02.635Z,16.27
2023-05-22T18:00:25.093Z,16.95
2023-05-22T18:02:47.733Z,20.25
2023-05-22T18:05:10.888Z,19.48
2023-05-22T18:07:33.380Z,19.45
2023-05-22T18:09:55.813Z,20.58
2023-05-22T18:14:47.055Z,20.23
2023-05-22T18:17:09.360Z,20.20
2023-05-22T18:19:31.938Z,21.45
2023-05-22T18:21:55.550Z,19.80
2023-05-22T18:24:20.612Z,20.00
2023-05-22T18:26:43.004Z,21.95
2023-05-22T18:29:05.801Z,20.08
2023-05-22T18:31:29.739Z,23.25
2023-05-22T18:33:53.157Z,22.88
2023-05-22T18:36:16.106Z,22.65
2023-05-22T18:38:38.514Z,21.17
2023-05-22T18:41:01.121Z,22.25
2023-05-22T18:43:27.846Z,24.42
2023-05-22T18:45:51.298Z,25.25
2023-05-22T18:48:14.136Z,24.70
2023-05-22T18:51:02.828Z,26.20
2023-05-22T18:53:35.329Z,22.15
2023-05-22T19:02:32.941Z,23.83
2023-05-22T19:05:15.905Z,25.30
2023-05-22T19:11:12.712Z,31.23
2023-05-22T19:13:35.231Z,26.50
2023-05-22T19:18:45.550Z,28.73
2023-05-22T19:21:08.054Z,29.90
2023-05-22T19:23:33.129Z,28.33
2023-05-22T19:25:55.896Z,25.27
2023-05-22T19:28:21.170Z,27.52
2023-05-22T19:34:39.482Z,30.10
2023-05-22T19:37:02.008Z,29.75
2023-05-22T19:42:46.677Z,31.17
2023-05-22T19:56:58.947Z,31.13
2023-05-22T19:59:21.682Z,33.83
2023-05-22T20:09:59.422Z,33.67
2023-05-22T20:12:47.174Z,32.08
2023-05-22T20:15:20.498Z,29.08
2023-05-22T20:17:56.312Z,34.35
2023-05-22T20:20:19.635Z,32.30
2023-05-22T20:27:02.373Z,34.47
2023-05-22T20:29:29.616Z,35.15
2023-05-22T20:31:56.864Z,34.95
2023-05-22T20:41:42.792Z,33.10
2023-05-22T20:44:07.885Z,35.42
2023-05-22T20:46:33.967Z,33.65
2023-05-22T20:49:13.741Z,31.20
2023-05-22T20:52:04.314Z,30.80
2023-05-22T20:54:34.288Z,28.52
2023-05-22T20:56:57.345Z,33.05
2023-05-22T20:59:54.156Z,38.63
2023-05-22T21:02:58.486Z,33.10
2023-05-22T21:05:31.330Z,35.65
2023-05-22T21:08:09.116Z,32.45
2023-05-22T21:10:52.092Z,31.65
2023-05-22T21:13:14.643Z,34.42
2023-05-22T21:15:46.260Z,33.42
2023-05-22T21:18:19.893Z,31.98
2023-05-22T21:20:43.845Z,31.95
2023-05-22T21:23:09.022Z,36.17
2023-05-22T21:25:35.334Z,37.90
2023-05-22T21:32:00.163Z,39.28
2023-05-22T21:34:47.799Z,39.97
2023-05-22T21:37:22.725Z,41.15
2023-05-22T21:40:06.056Z,39.28
2023-05-22T21:42:46.302Z,37.85
2023-05-22T21:45:11.411Z,41.75
2023-05-22T21:51:35.569Z,40.67
2023-05-22T21:53:58.253Z,46.67
2023-05-22T21:57:00.277Z,41.08
2023-05-22T21:59:29.409Z,46.72
2023-05-22T22:01:58.838Z,53.22
2023-05-22T22:04:31.686Z,44.30
2023-05-22T22:06:57.394Z,44.78
2023-05-22T22:09:29.055Z,45.97
2023-05-22T22:12:00.334Z,40.00
2023-05-22T22:14:29.474Z,40.08
2023-05-22T22:16:54.635Z,46.17
2023-05-22T22:22:31.647Z,48.65
2023-05-22T22:24:54.091Z,48.90
2023-05-22T22:27:21.219Z,44.53
2023-05-22T22:30:08.620Z,48.67
2023-05-22T22:40:16.041Z,42.05
2023-05-22T22:51:17.435Z,49.00
2023-05-22T23:04:41.889Z,47.20
2023-05-22T23:10:31.180Z,49.60
2023-05-22T23:13:13.979Z,53.55
2023-05-22T23:27:39.619Z,46.05
2023-05-22T23:33:26.180Z,51.70
2023-05-22T23:35:49.013Z,50.47
2023-05-22T23:38:14.732Z,50.55
2023-05-22T23:40:37.362Z,56.78
2023-05-22T23:43:01.983Z,50.55
2023-05-22T23:45:50.682Z,51.83
2023-05-22T23:48:16.615Z,51.63
2023-05-22T23:50:39.386Z,51.83
2023-05-22T23:53:02.132Z,52.35
2023-05-22T23:55:24.767Z,48.78
2023-05-22T23:57:47.615Z,47.38
